createdAt,value
2023-02-15T00:02:28.986Z,101459.31
2023-02-15T00:06:42.867Z,101456.94
2023-02-15T00:11:43.763Z,101467.78
2023-02-15T00:15:56.060Z,101472.44
2023-02-15T00:20:09.536Z,101466.31
2023-02-15T00:24:23.533Z,101462.09
2023-02-15T00:28:40.398Z,101460.09
2023-02-15T00:32:53.876Z,101461.16
2023-02-15T00:37:06.157Z,101454.59
2023-02-15T00:41:18.459Z,101459.34
2023-02-15T00:45:30.801Z,101455.84
2023-02-15T00:49:43.229Z,101448.97
2023-02-15T00:53:55.972Z,101461.97
2023-02-15T00:58:09.741Z,101453.56
2023-02-15T01:02:22.202Z,101447.50
2023-02-15T01:06:34.609Z,101438.00
2023-02-15T01:10:48.411Z,101438.38
2023-02-15T01:15:00.843Z,101435.06
2023-02-15T01:19:14.389Z,101424.50
2023-02-15T01:23:26.736Z,101411.16
2023-02-15T01:27:39.169Z,101412.81
2023-02-15T01:31:52.139Z,101407.00
2023-02-15T01:36:05.320Z,101407.50
2023-02-15T01:40:19.469Z,101393.78
2023-02-15T01:44:59.045Z,101416.03
2023-02-15T01:49:16.543Z,101424.00
2023-02-15T01:53:42.636Z,101412.75
2023-02-15T01:57:55.303Z,101424.63
2023-02-15T02:02:11.019Z,101428.59
2023-02-15T02:06:26.246Z,101427.03
2023-02-15T02:10:38.731Z,101436.28
2023-02-15T02:14:52.778Z,101436.09
2023-02-15T02:19:20.395Z,101428.53
2023-02-15T02:23:47.175Z,101440.16
2023-02-15T02:28:24.068Z,101439.81
2023-02-15T02:33:04.631Z,101434.78
2023-02-15T02:37:32.634Z,101423.03
2023-02-15T02:42:10.798Z,101441.09
2023-02-15T02:46:32.796Z,101426.19
2023-02-15T02:50:46.307Z,101433.78
2023-02-15T02:54:59.107Z,101442.50
2023-02-15T02:59:19.179Z,101433.91
2023-02-15T03:03:33.955Z,101447.56
2023-02-15T03:07:51.383Z,101439.00
2023-02-15T03:12:04.956Z,101436.03
2023-02-15T03:16:28.408Z,101437.38
2023-02-15T03:20:41.188Z,101435.66
2023-02-15T03:25:16.735Z,101427.38
2023-02-15T03:29:30.045Z,101434.59
2023-02-15T03:33:51.327Z,101425.78
2023-02-15T03:38:07.860Z,101428.94
2023-02-15T03:42:26.275Z,101435.94
2023-02-15T03:46:53.680Z,101429.81
2023-02-15T03:51:29.179Z,101420.56
2023-02-15T03:55:41.641Z,101422.97
2023-02-15T04:00:12.131Z,101420.56
2023-02-15T04:04:39.180Z,101410.22
2023-02-15T04:09:09.678Z,101432.34
2023-02-15T04:13:31.534Z,101427.41
2023-02-15T04:17:43.918Z,101428.94
2023-02-15T04:22:14.832Z,101430.88
2023-02-15T04:26:27.194Z,101440.34
2023-02-15T04:30:39.578Z,101438.25
2023-02-15T04:34:51.908Z,101450.13
2023-02-15T04:39:04.434Z,101442.94
2023-02-15T04:43:16.786Z,101448.88
2023-02-15T04:47:29.094Z,101456.16
2023-02-15T04:51:41.582Z,101459.59
2023-02-15T04:55:56.554Z,101460.16
2023-02-15T05:00:11.544Z,101472.38
2023-02-15T05:04:24.854Z,101471.69
2023-02-15T05:08:37.971Z,101475.19
2023-02-15T05:12:50.642Z,101486.81
2023-02-15T05:17:06.470Z,101494.97
2023-02-15T05:21:18.833Z,101493.38
2023-02-15T05:25:49.518Z,101502.28
2023-02-15T05:30:02.744Z,101500.19
2023-02-15T05:34:17.078Z,101509.78
2023-02-15T05:38:32.148Z,101531.34
2023-02-15T05:42:44.545Z,101531.03
2023-02-15T05:46:56.871Z,101536.94
2023-02-15T05:51:14.522Z,101546.78
2023-02-15T05:55:26.892Z,101540.66
2023-02-15T05:59:39.178Z,101558.19
2023-02-15T06:03:52.191Z,101553.19
2023-02-15T06:08:06.556Z,101548.84
2023-02-15T06:12:18.994Z,101549.59
2023-02-15T06:16:32.486Z,101553.50
2023-02-15T06:20:48.428Z,101549.69
2023-02-15T06:25:00.732Z,101547.66
2023-02-15T06:29:14.574Z,101554.84
2023-02-15T06:33:27.028Z,101559.81
2023-02-15T06:37:39.687Z,101561.34
2023-02-15T06:41:53.016Z,101555.13
2023-02-15T06:46:05.744Z,101559.09
2023-02-15T06:50:19.915Z,101562.47
2023-02-15T06:54:32.494Z,101563.47
2023-02-15T06:58:48.438Z,101571.38
2023-02-15T07:03:01.334Z,101563.75
2023-02-15T07:07:13.961Z,101564.13
2023-02-15T07:11:45.107Z,101572.34
2023-02-15T07:15:57.485Z,101578.38
2023-02-15T07:20:17.760Z,101576.25
2023-02-15T07:24:30.420Z,101577.50
2023-02-15T07:28:45.591Z,101588.28
2023-02-15T07:33:18.411Z,101587.72
2023-02-15T07:37:31.001Z,101582.00
2023-02-15T07:41:44.577Z,101584.41
2023-02-15T07:46:08.748Z,101585.31
2023-02-15T07:50:21.086Z,101578.09
2023-02-15T07:54:33.393Z,101571.38
2023-02-15T07:58:57.212Z,101581.78
2023-02-15T08:03:16.896Z,101581.00
2023-02-15T08:07:32.161Z,101580.06
2023-02-15T08:11:50.677Z,101579.06
2023-02-15T08:16:06.032Z,101580.88
2023-02-15T08:20:18.861Z,101585.44
2023-02-15T08:24:34.059Z,101590.44
2023-02-15T08:28:47.620Z,101580.72
2023-02-15T08:33:01.263Z,101578.41
2023-02-15T08:37:13.538Z,101593.81
2023-02-15T08:41:32.024Z,101587.19
2023-02-15T08:45:44.439Z,101593.28
2023-02-15T08:49:57.227Z,101585.28
2023-02-15T08:54:13.377Z,101597.50
2023-02-15T08:58:26.083Z,101588.50
2023-02-15T09:02:38.650Z,101605.69
2023-02-15T09:06:51.724Z,101600.44
2023-02-15T09:11:23.963Z,101598.66
2023-02-15T09:15:36.370Z,101601.59
2023-02-15T09:19:48.724Z,101611.00
2023-02-15T09:24:03.836Z,101612.19
2023-02-15T09:28:16.270Z,101609.59
2023-02-15T09:32:28.717Z,101608.69
2023-02-15T09:36:42.152Z,101617.56
2023-02-15T09:41:23.869Z,101612.66
2023-02-15T09:46:40.603Z,101624.31
2023-02-15T09:51:20.906Z,101626.16
2023-02-15T09:55:48.464Z,101627.06
2023-02-15T10:00:12.792Z,101633.28
2023-02-15T10:04:53.323Z,101624.38
2023-02-15T10:09:16.035Z,101636.78
2023-02-15T10:14:04.273Z,101633.03
2023-02-15T10:18:30.432Z,101638.44
2023-02-15T10:23:01.411Z,101622.47
2023-02-15T10:27:20.097Z,101632.16
2023-02-15T10:32:08.353Z,101618.72
2023-02-15T10:36:42.370Z,101628.59
2023-02-15T10:40:54.635Z,101620.34
2023-02-15T10:45:41.508Z,101616.50
2023-02-15T10:50:15.759Z,101618.63
2023-02-15T10:54:39.878Z,101608.03
2023-02-15T10:59:23.650Z,101605.91
2023-02-15T11:03:57.759Z,101598.38
2023-02-15T11:08:12.745Z,101602.63
2023-02-15T11:12:28.907Z,101598.63
2023-02-15T11:16:47.125Z,101604.91
2023-02-15T11:21:05.382Z,101602.50
2023-02-15T11:25:22.105Z,101597.75
2023-02-15T11:29:47.622Z,101607.06
2023-02-15T11:34:05.649Z,101599.81
2023-02-15T11:38:28.477Z,101598.69
2023-02-15T11:42:42.094Z,101592.03
2023-02-15T11:46:55.365Z,101588.59
2023-02-15T11:51:15.350Z,101589.19
2023-02-15T11:55:30.450Z,101588.88
2023-02-15T11:59:50.696Z,101587.38
2023-02-15T12:04:03.252Z,101585.13
2023-02-15T12:08:22.283Z,101583.56
2023-02-15T12:12:36.627Z,101588.53
2023-02-15T12:16:52.721Z,101584.69
2023-02-15T12:21:11.623Z,101577.63
2023-02-15T12:25:30.682Z,101588.78
2023-02-15T12:29:47.415Z,101583.03
2023-02-15T12:34:04.778Z,101573.94
2023-02-15T12:38:17.113Z,101580.00
2023-02-15T12:42:43.512Z,101580.00
2023-02-15T12:47:06.213Z,101584.84
2023-02-15T12:51:18.730Z,101584.34
2023-02-15T12:55:31.994Z,101582.22
2023-02-15T12:59:52.720Z,101571.84
2023-02-15T13:04:07.686Z,101581.06
2023-02-15T13:08:32.946Z,101580.34
2023-02-15T13:12:48.913Z,101571.25
2023-02-15T13:17:07.744Z,101573.03
2023-02-15T13:21:23.355Z,101571.41
2023-02-15T13:25:45.985Z,101571.78
2023-02-15T13:30:04.089Z,101575.13
2023-02-15T13:34:22.292Z,101575.91
2023-02-15T13:38:55.830Z,101579.59
2023-02-15T13:43:20.294Z,101583.19
2023-02-15T13:47:36.204Z,101580.47
2023-02-15T13:52:13.938Z,101579.56
2023-02-15T13:56:38.288Z,101587.53
2023-02-15T14:01:12.284Z,101586.88
2023-02-15T14:05:55.622Z,101583.31
2023-02-15T14:10:15.057Z,101584.38
2023-02-15T14:15:04.495Z,101590.56
2023-02-15T14:19:40.784Z,101587.91
2023-02-15T14:24:17.031Z,101592.41
2023-02-15T14:28:39.326Z,101594.19
2023-02-15T14:33:01.128Z,101592.41
2023-02-15T14:37:18.383Z,101600.41
2023-02-15T14:41:54.759Z,101609.31
2023-02-15T14:46:27.985Z,101614.63
2023-02-15T14:50:46.201Z,101623.53
2023-02-15T14:54:59.720Z,101626.16
2023-02-15T14:59:18.850Z,101627.06
2023-02-15T15:03:31.449Z,101629.69
2023-02-15T15:07:57.363Z,101633.13
2023-02-15T15:12:36.352Z,101640.16
2023-02-15T15:16:51.966Z,101640.09
2023-02-15T15:21:05.950Z,101637.38
2023-02-15T15:25:39.955Z,101632.72
2023-02-15T15:29:52.577Z,101631.72
2023-02-15T15:34:32.286Z,101640.22
2023-02-15T15:39:26.356Z,101633.13
2023-02-15T15:44:00.245Z,101624.06
2023-02-15T15:48:29.601Z,101632.56
2023-02-15T15:52:48.980Z,101627.97
2023-02-15T15:57:04.615Z,101631.72
2023-02-15T16:01:19.665Z,101630.03
2023-02-15T16:05:41.553Z,101632.81
2023-02-15T16:10:10.936Z,101640.94
2023-02-15T16:14:30.116Z,101654.53
2023-02-15T16:18:45.599Z,101647.50
2023-02-15T16:23:36.396Z,101651.91
2023-02-15T16:27:50.097Z,101662.59
2023-02-15T16:32:08.011Z,101661.25
2023-02-15T16:36:23.411Z,101667.00
2023-02-15T16:40:57.228Z,101665.94
2023-02-15T16:45:16.717Z,101679.41
2023-02-15T16:49:31.393Z,101675.16
2023-02-15T16:53:49.109Z,101679.47
2023-02-15T16:58:05.550Z,101681.56
2023-02-15T17:02:43.036Z,101694.00
2023-02-15T17:07:06.605Z,101700.91
2023-02-15T17:11:24.160Z,101687.47
2023-02-15T17:15:45.800Z,101695.78
2023-02-15T17:19:58.469Z,101694.16
2023-02-15T17:24:19.458Z,101695.41
2023-02-15T17:28:34.200Z,101697.25
2023-02-15T17:32:56.842Z,101699.19
2023-02-15T17:37:38.124Z,101705.38
2023-02-15T17:41:54.071Z,101709.56
2023-02-15T17:46:06.829Z,101715.47
2023-02-15T17:50:26.157Z,101715.16
2023-02-15T17:55:00.100Z,101721.78
2023-02-15T17:59:15.894Z,101723.22
2023-02-15T18:03:58.305Z,101728.94
2023-02-15T18:08:35.226Z,101732.25
2023-02-15T18:12:48.887Z,101731.88
2023-02-15T18:17:03.505Z,101733.81
2023-02-15T18:21:16.938Z,101733.06
2023-02-15T18:25:29.662Z,101738.94
2023-02-15T18:29:42.519Z,101747.50
2023-02-15T18:33:59.536Z,101750.06
2023-02-15T18:38:13.080Z,101758.56
2023-02-15T18:42:28.596Z,101772.09
2023-02-15T18:46:43.317Z,101790.03
2023-02-15T18:50:55.729Z,101783.25
2023-02-15T18:55:25.088Z,101782.41
2023-02-15T18:59:38.409Z,101775.81
2023-02-15T19:03:53.486Z,101773.38
2023-02-15T19:08:07.259Z,101779.03
2023-02-15T19:12:19.921Z,101795.03
2023-02-15T19:16:35.573Z,101797.44
2023-02-15T19:20:49.395Z,101801.75
2023-02-15T19:25:08.362Z,101810.06
2023-02-15T19:29:26.550Z,101810.50
2023-02-15T19:33:39.409Z,101806.09
2023-02-15T19:38:01.079Z,101806.72
2023-02-15T19:42:24.887Z,101811.13
2023-02-15T19:46:38.762Z,101814.56
2023-02-15T19:50:52.949Z,101824.94
2023-02-15T19:55:05.842Z,101826.53
2023-02-15T19:59:34.359Z,101836.59
2023-02-15T20:03:46.736Z,101829.97
2023-02-15T20:08:02.098Z,101824.84
2023-02-15T20:12:24.567Z,101825.84
2023-02-15T20:16:37.106Z,101826.31
2023-02-15T20:20:52.940Z,101828.03
2023-02-15T20:25:05.651Z,101815.50
2023-02-15T20:29:19.469Z,101805.69
2023-02-15T20:33:31.813Z,101810.81
2023-02-15T20:37:46.958Z,101815.41
2023-02-15T20:41:59.326Z,101809.53
2023-02-15T20:46:11.799Z,101806.25
2023-02-15T20:50:33.426Z,101809.63
2023-02-15T20:54:46.889Z,101800.84
2023-02-15T20:58:59.191Z,101804.50
2023-02-15T21:03:18.160Z,101800.66
2023-02-15T21:07:32.961Z,101800.19
2023-02-15T21:11:45.811Z,101787.59
2023-02-15T21:15:58.934Z,101798.03
2023-02-15T21:20:14.876Z,101795.91
2023-02-15T21:24:29.630Z,101802.38
2023-02-15T21:28:42.305Z,101798.91
2023-02-15T21:32:55.125Z,101805.31
2023-02-15T21:37:32.653Z,101809.44
2023-02-15T21:42:06.083Z,101810.66
2023-02-15T21:46:38.811Z,101812.88
2023-02-15T21:51:10.776Z,101823.25
2023-02-15T21:55:23.571Z,101831.03
2023-02-15T21:59:35.931Z,101826.06
2023-02-15T22:03:48.883Z,101830.69
2023-02-15T22:08:01.297Z,101840.53
2023-02-15T22:12:22.292Z,101850.41
2023-02-15T22:16:34.732Z,101848.22
2023-02-15T22:20:50.579Z,101864.13
2023-02-15T22:25:05.156Z,101865.34
2023-02-15T22:29:18.509Z,101864.78
2023-02-15T22:33:33.682Z,101865.88
2023-02-15T22:37:45.992Z,101864.81
2023-02-15T22:41:58.509Z,101868.28
2023-02-15T22:46:18.259Z,101865.28
2023-02-15T22:50:34.277Z,101859.94
2023-02-15T22:54:47.137Z,101871.47
2023-02-15T22:59:02.973Z,101864.22
2023-02-15T23:03:21.572Z,101869.28
2023-02-15T23:07:34.181Z,101861.91
2023-02-15T23:11:48.817Z,101861.66
2023-02-15T23:16:03.513Z,101860.63
2023-02-15T23:20:16.322Z,101857.56
2023-02-15T23:24:30.801Z,101865.03
2023-02-15T23:28:43.514Z,101863.75
2023-02-15T23:32:58.153Z,101853.44
2023-02-15T23:37:14.776Z,101869.03
2023-02-15T23:41:30.443Z,101855.84
2023-02-15T23:45:42.822Z,101866.56
2023-02-15T23:49:55.187Z,101871.09
2023-02-15T23:54:07.673Z,101866.19
2023-02-15T23:58:26.321Z,101863.53
